sensor_id;sensor_type;location;lat;lon;timestamp;temperature;humidity
5697;DHT22;2873;50.966;7.210;2023-09-19T00:01:15;18.50;99.90
5697;DHT22;2873;50.966;7.210;2023-09-19T00:03:47;18.50;99.90
5697;DHT22;2873;50.966;7.210;2023-09-19T00:06:12;18.60;99.90
5697;DHT22;2873;50.966;7.210;2023-09-19T00:08:41;18.50;99.90
5697;DHT22;2873;50.966;7.210;2023-09-19T00:11:09;18.50;99.90
5697;DHT22;2873;50.966;7.210;2023-09-19T00:13:36;18.50;99.90
5697;DHT22;2873;50.966;7.210;2023-09-19T00:16:08;18.50;99.90
5697;DHT22;2873;50.966;7.210;2023-09-19T00:18:34;18.40;99.90
5697;DHT22;2873;50.966;7.210;2023-09-19T00:21:00;18.40;99.90
5697;DHT22;2873;50.966;7.210;2023-09-19T00:23:26;18.40;99.90
5697;DHT22;2873;50.966;7.210;2023-09-19T00:25:52;18.40;99.90
5697;DHT22;2873;50.966;7.210;2023-09-19T00:28:22;18.30;99.90
5697;DHT22;2873;50.966;7.210;2023-09-19T00:30:48;18.30;99.90
5697;DHT22;2873;50.966;7.210;2023-09-19T00:33:17;18.30;99.90
5697;DHT22;2873;50.966;7.210;2023-09-19T00:35:51;18.20;99.90
5697;DHT22;2873;50.966;7.210;2023-09-19T00:38:18;18.10;99.90
5697;DHT22;2873;50.966;7.210;2023-09-19T00:40:47;18.10;99.90
5697;DHT22;2873;50.966;7.210;2023-09-19T00:43:13;18.10;99.90
5697;DHT22;2873;50.966;7.210;2023-09-19T00:45:43;17.90;99.90
5697;DHT22;2873;50.966;7.210;2023-09-19T00:48:09;18.00;99.90
5697;DHT22;2873;50.966;7.210;2023-09-19T00:50:35;18.00;99.90
5697;DHT22;2873;50.966;7.210;2023-09-19T00:53:02;18.00;99.90
5697;DHT22;2873;50.966;7.210;2023-09-19T00:55:35;17.90;99.90
5697;DHT22;2873;50.966;7.210;2023-09-19T00:58:03;17.90;99.90
5697;DHT22;2873;50.966;7.210;2023-09-19T01:00:29;18.00;99.90
5697;DHT22;2873;50.966;7.210;2023-09-19T01:02:54;18.00;99.90
5697;DHT22;2873;50.966;7.210;2023-09-19T01:05:21;18.00;99.90
5697;DHT22;2873;50.966;7.210;2023-09-19T01:07:46;18.00;99.90
5697;DHT22;2873;50.966;7.210;2023-09-19T01:10:16;18.00;99.90
5697;DHT22;2873;50.966;7.210;2023-09-19T01:18:08;18.10;99.90
5697;DHT22;2873;50.966;7.210;2023-09-19T01:20:57;18.10;99.90
5697;DHT22;2873;50.966;7.210;2023-09-19T01:29:26;18.10;99.90
5697;DHT22;2873;50.966;7.210;2023-09-19T01:32:03;18.10;99.90
5697;DHT22;2873;50.966;7.210;2023-09-19T01:34:53;18.00;99.90
5697;DHT22;2873;50.966;7.210;2023-09-19T01:37:22;18.10;99.90
5697;DHT22;2873;50.966;7.210;2023-09-19T01:40:06;18.10;99.90
5697;DHT22;2873;50.966;7.210;2023-09-19T01:43:23;18.10;99.90
5697;DHT22;2873;50.966;7.210;2023-09-19T01:46:08;18.10;99.90
5697;DHT22;2873;50.966;7.210;2023-09-19T01:48:58;18.10;99.90
5697;DHT22;2873;50.966;7.210;2023-09-19T01:51:33;18.10;99.90
5697;DHT22;2873;50.966;7.210;2023-09-19T01:54:02;18.10;99.90
5697;DHT22;2873;50.966;7.210;2023-09-19T01:56:36;18.20;99.90
5697;DHT22;2873;50.966;7.210;2023-09-19T01:59:11;18.10;99.90
5697;DHT22;2873;50.966;7.210;2023-09-19T02:01:39;18.10;99.90
5697;DHT22;2873;50.966;7.210;2023-09-19T02:04:06;18.10;99.90
5697;DHT22;2873;50.966;7.210;2023-09-19T02:06:32;18.00;99.90
5697;DHT22;2873;50.966;7.210;2023-09-19T02:08:59;17.90;99.90
5697;DHT22;2873;50.966;7.210;2023-09-19T02:11:25;18.00;99.90
5697;DHT22;2873;50.966;7.210;2023-09-19T02:13:50;17.90;99.90
5697;DHT22;2873;50.966;7.210;2023-09-19T02:16:19;17.80;99.90
5697;DHT22;2873;50.966;7.210;2023-09-19T02:18:49;17.80;99.90
5697;DHT22;2873;50.966;7.210;2023-09-19T02:21:17;17.90;99.90
5697;DHT22;2873;50.966;7.210;2023-09-19T02:23:44;17.90;99.90
5697;DHT22;2873;50.966;7.210;2023-09-19T02:26:10;17.90;99.90
5697;DHT22;2873;50.966;7.210;2023-09-19T02:28:37;17.70;99.90
5697;DHT22;2873;50.966;7.210;2023-09-19T02:31:03;17.70;99.90
5697;DHT22;2873;50.966;7.210;2023-09-19T02:33:31;17.60;99.90
5697;DHT22;2873;50.966;7.210;2023-09-19T02:35:58;17.60;99.90
5697;DHT22;2873;50.966;7.210;2023-09-19T02:38:27;17.70;99.90
5697;DHT22;2873;50.966;7.210;2023-09-19T02:40:54;17.70;99.90
5697;DHT22;2873;50.966;7.210;2023-09-19T02:43:22;17.60;99.90
5697;DHT22;2873;50.966;7.210;2023-09-19T02:45:49;17.60;99.90
5697;DHT22;2873;50.966;7.210;2023-09-19T02:48:18;17.60;99.90
5697;DHT22;2873;50.966;7.210;2023-09-19T02:50:44;17.60;99.90
5697;DHT22;2873;50.966;7.210;2023-09-19T02:53:10;17.60;99.90
5697;DHT22;2873;50.966;7.210;2023-09-19T02:55:38;17.60;99.90
5697;DHT22;2873;50.966;7.210;2023-09-19T02:58:06;17.60;99.90
5697;DHT22;2873;50.966;7.210;2023-09-19T03:00:33;17.50;99.90
5697;DHT22;2873;50.966;7.210;2023-09-19T03:03:01;17.50;99.90
5697;DHT22;2873;50.966;7.210;2023-09-19T03:05:27;17.40;99.90
5697;DHT22;2873;50.966;7.210;2023-09-19T03:07:56;17.40;99.90
5697;DHT22;2873;50.966;7.210;2023-09-19T03:10:22;17.50;99.90
5697;DHT22;2873;50.966;7.210;2023-09-19T03:12:48;17.40;99.90
5697;DHT22;2873;50.966;7.210;2023-09-19T03:15:14;17.40;99.90
5697;DHT22;2873;50.966;7.210;2023-09-19T03:17:48;17.40;99.90
5697;DHT22;2873;50.966;7.210;2023-09-19T03:20:14;17.30;99.90
5697;DHT22;2873;50.966;7.210;2023-09-19T03:22:45;17.30;99.90
5697;DHT22;2873;50.966;7.210;2023-09-19T03:25:11;17.30;99.90
5697;DHT22;2873;50.966;7.210;2023-09-19T03:27:40;17.30;99.90
5697;DHT22;2873;50.966;7.210;2023-09-19T03:30:06;17.30;99.90
5697;DHT22;2873;50.966;7.210;2023-09-19T03:32:37;17.30;99.90
5697;DHT22;2873;50.966;7.210;2023-09-19T03:35:08;17.30;99.90
5697;DHT22;2873;50.966;7.210;2023-09-19T03:37:40;17.30;99.90
5697;DHT22;2873;50.966;7.210;2023-09-19T03:40:08;17.30;99.90
5697;DHT22;2873;50.966;7.210;2023-09-19T03:42:33;17.30;99.90
5697;DHT22;2873;50.966;7.210;2023-09-19T03:45:01;17.20;99.90
5697;DHT22;2873;50.966;7.210;2023-09-19T03:47:32;17.20;99.90
5697;DHT22;2873;50.966;7.210;2023-09-19T03:49:58;17.20;99.90
5697;DHT22;2873;50.966;7.210;2023-09-19T03:52:23;17.20;99.90
5697;DHT22;2873;50.966;7.210;2023-09-19T03:54:50;17.20;99.90
5697;DHT22;2873;50.966;7.210;2023-09-19T03:57:16;17.30;99.90
5697;DHT22;2873;50.966;7.210;2023-09-19T03:59:46;17.20;99.90
5697;DHT22;2873;50.966;7.210;2023-09-19T04:02:11;17.20;99.90
5697;DHT22;2873;50.966;7.210;2023-09-19T04:04:48;17.20;99.90
5697;DHT22;2873;50.966;7.210;2023-09-19T04:07:13;17.20;99.90
5697;DHT22;2873;50.966;7.210;2023-09-19T04:09:39;17.10;99.90
5697;DHT22;2873;50.966;7.210;2023-09-19T04:12:05;17.10;99.90
5697;DHT22;2873;50.966;7.210;2023-09-19T04:14:30;17.10;99.90
5697;DHT22;2873;50.966;7.210;2023-09-19T04:16:56;17.10;99.90
5697;DHT22;2873;50.966;7.210;2023-09-19T04:19:22;17.10;99.90
5697;DHT22;2873;50.966;7.210;2023-09-19T04:21:47;17.10;99.90
5697;DHT22;2873;50.966;7.210;2023-09-19T04:24:13;17.00;99.90
5697;DHT22;2873;50.966;7.210;2023-09-19T04:26:39;17.00;99.90
5697;DHT22;2873;50.966;7.210;2023-09-19T04:29:04;17.00;99.90
5697;DHT22;2873;50.966;7.210;2023-09-19T04:31:31;16.90;99.90
5697;DHT22;2873;50.966;7.210;2023-09-19T04:33:57;16.90;99.90
5697;DHT22;2873;50.966;7.210;2023-09-19T04:36:24;16.90;99.90
5697;DHT22;2873;50.966;7.210;2023-09-19T04:38:50;17.10;99.90
5697;DHT22;2873;50.966;7.210;2023-09-19T04:41:15;16.90;99.90
5697;DHT22;2873;50.966;7.210;2023-09-19T04:43:41;16.90;99.90
5697;DHT22;2873;50.966;7.210;2023-09-19T04:46:06;16.90;99.90
5697;DHT22;2873;50.966;7.210;2023-09-19T04:48:32;16.90;99.90
5697;DHT22;2873;50.966;7.210;2023-09-19T04:51:00;16.90;99.90
5697;DHT22;2873;50.966;7.210;2023-09-19T04:53:25;16.90;99.90
5697;DHT22;2873;50.966;7.210;2023-09-19T04:55:52;16.90;99.90
5697;DHT22;2873;50.966;7.210;2023-09-19T04:58:21;17.00;99.90
5697;DHT22;2873;50.966;7.210;2023-09-19T05:00:47;17.00;99.90
5697;DHT22;2873;50.966;7.210;2023-09-19T05:03:13;17.00;99.90
5697;DHT22;2873;50.966;7.210;2023-09-19T05:05:38;17.00;99.90
5697;DHT22;2873;50.966;7.210;2023-09-19T05:08:06;16.90;99.90
5697;DHT22;2873;50.966;7.210;2023-09-19T05:10:34;16.90;99.90
5697;DHT22;2873;50.966;7.210;2023-09-19T05:13:04;16.80;99.90
5697;DHT22;2873;50.966;7.210;2023-09-19T05:15:30;16.80;99.90
5697;DHT22;2873;50.966;7.210;2023-09-19T05:17:56;16.70;99.90
5697;DHT22;2873;50.966;7.210;2023-09-19T05:20:22;16.70;99.90
5697;DHT22;2873;50.966;7.210;2023-09-19T05:23:05;16.70;99.90
5697;DHT22;2873;50.966;7.210;2023-09-19T05:25:35;16.70;99.90
5697;DHT22;2873;50.966;7.210;2023-09-19T05:28:08;16.60;99.90
5697;DHT22;2873;50.966;7.210;2023-09-19T05:30:34;16.50;99.90
5697;DHT22;2873;50.966;7.210;2023-09-19T05:33:01;16.50;99.90
5697;DHT22;2873;50.966;7.210;2023-09-19T05:35:27;16.60;99.90
5697;DHT22;2873;50.966;7.210;2023-09-19T05:37:54;16.50;99.90
5697;DHT22;2873;50.966;7.210;2023-09-19T05:40:20;16.50;99.90
5697;DHT22;2873;50.966;7.210;2023-09-19T05:42:46;16.50;99.90
5697;DHT22;2873;50.966;7.210;2023-09-19T05:45:13;16.50;99.90
5697;DHT22;2873;50.966;7.210;2023-09-19T05:47:40;16.50;99.90
5697;DHT22;2873;50.966;7.210;2023-09-19T05:50:06;16.50;99.90
5697;DHT22;2873;50.966;7.210;2023-09-19T05:52:37;16.50;99.90
5697;DHT22;2873;50.966;7.210;2023-09-19T05:55:06;16.50;99.90
5697;DHT22;2873;50.966;7.210;2023-09-19T05:57:33;16.40;99.90
5697;DHT22;2873;50.966;7.210;2023-09-19T05:59:59;16.30;99.90
5697;DHT22;2873;50.966;7.210;2023-09-19T06:02:24;16.40;99.90
5697;DHT22;2873;50.966;7.210;2023-09-19T06:04:55;16.40;99.90
5697;DHT22;2873;50.966;7.210;2023-09-19T06:07:24;16.40;99.90
5697;DHT22;2873;50.966;7.210;2023-09-19T06:09:52;16.40;99.90
5697;DHT22;2873;50.966;7.210;2023-09-19T06:12:21;16.40;99.90
5697;DHT22;2873;50.966;7.210;2023-09-19T06:14:47;16.40;99.90
5697;DHT22;2873;50.966;7.210;2023-09-19T06:17:13;16.40;99.90
5697;DHT22;2873;50.966;7.210;2023-09-19T06:19:39;16.30;99.90
5697;DHT22;2873;50.966;7.210;2023-09-19T06:22:05;16.30;99.90
5697;DHT22;2873;50.966;7.210;2023-09-19T06:24:30;16.20;99.90
5697;DHT22;2873;50.966;7.210;2023-09-19T06:26:56;16.30;99.90
5697;DHT22;2873;50.966;7.210;2023-09-19T06:29:21;16.30;99.90
5697;DHT22;2873;50.966;7.210;2023-09-19T06:31:48;16.30;99.90
5697;DHT22;2873;50.966;7.210;2023-09-19T06:34:14;16.30;99.90
5697;DHT22;2873;50.966;7.210;2023-09-19T06:36:40;16.20;99.90
5697;DHT22;2873;50.966;7.210;2023-09-19T06:39:06;16.20;99.90
5697;DHT22;2873;50.966;7.210;2023-09-19T06:41:39;16.30;99.90
5697;DHT22;2873;50.966;7.210;2023-09-19T06:44:05;16.40;99.90
5697;DHT22;2873;50.966;7.210;2023-09-19T06:46:31;16.10;99.90
5697;DHT22;2873;50.966;7.210;2023-09-19T06:49:00;16.20;99.90
5697;DHT22;2873;50.966;7.210;2023-09-19T06:51:28;16.20;99.90
5697;DHT22;2873;50.966;7.210;2023-09-19T06:53:55;16.30;99.90
5697;DHT22;2873;50.966;7.210;2023-09-19T06:56:22;16.30;99.90
5697;DHT22;2873;50.966;7.210;2023-09-19T06:58:50;16.40;99.90
5697;DHT22;2873;50.966;7.210;2023-09-19T07:01:15;16.20;99.90
5697;DHT22;2873;50.966;7.210;2023-09-19T07:03:41;16.40;99.90
5697;DHT22;2873;50.966;7.210;2023-09-19T07:06:09;16.40;99.90
5697;DHT22;2873;50.966;7.210;2023-09-19T07:08:37;16.30;99.90
5697;DHT22;2873;50.966;7.210;2023-09-19T07:11:04;16.30;99.90
5697;DHT22;2873;50.966;7.210;2023-09-19T07:13:31;16.50;99.90
5697;DHT22;2873;50.966;7.210;2023-09-19T07:15:58;16.40;99.90
5697;DHT22;2873;50.966;7.210;2023-09-19T07:18:25;16.50;99.90
5697;DHT22;2873;50.966;7.210;2023-09-19T07:20:51;16.50;99.90
5697;DHT22;2873;50.966;7.210;2023-09-19T07:23:18;16.50;99.90
5697;DHT22;2873;50.966;7.210;2023-09-19T07:25:44;16.70;99.90
5697;DHT22;2873;50.966;7.210;2023-09-19T07:28:10;16.80;99.90
5697;DHT22;2873;50.966;7.210;2023-09-19T07:30:36;16.70;99.90
5697;DHT22;2873;50.966;7.210;2023-09-19T07:33:06;16.70;99.90
5697;DHT22;2873;50.966;7.210;2023-09-19T07:35:32;16.70;99.90
5697;DHT22;2873;50.966;7.210;2023-09-19T07:37:59;16.90;99.90
5697;DHT22;2873;50.966;7.210;2023-09-19T07:40:27;16.90;99.90
5697;DHT22;2873;50.966;7.210;2023-09-19T07:42:56;16.80;99.90
5697;DHT22;2873;50.966;7.210;2023-09-19T07:45:22;16.80;99.90
5697;DHT22;2873;50.966;7.210;2023-09-19T07:47:51;16.90;99.90
5697;DHT22;2873;50.966;7.210;2023-09-19T07:50:17;16.80;99.90
5697;DHT22;2873;50.966;7.210;2023-09-19T07:52:47;16.90;99.90
5697;DHT22;2873;50.966;7.210;2023-09-19T07:55:12;17.10;99.90
5697;DHT22;2873;50.966;7.210;2023-09-19T07:57:45;16.90;99.90
5697;DHT22;2873;50.966;7.210;2023-09-19T08:00:12;17.10;99.90
5697;DHT22;2873;50.966;7.210;2023-09-19T08:02:39;17.10;99.90
5697;DHT22;2873;50.966;7.210;2023-09-19T08:05:08;17.10;99.90
5697;DHT22;2873;50.966;7.210;2023-09-19T08:07:42;17.10;99.90
5697;DHT22;2873;50.966;7.210;2023-09-19T08:10:09;17.10;99.90
5697;DHT22;2873;50.966;7.210;2023-09-19T08:12:42;17.10;99.90
5697;DHT22;2873;50.966;7.210;2023-09-19T08:15:20;17.20;99.90
5697;DHT22;2873;50.966;7.210;2023-09-19T08:17:46;17.30;99.90
5697;DHT22;2873;50.966;7.210;2023-09-19T08:20:13;17.30;99.90
5697;DHT22;2873;50.966;7.210;2023-09-19T08:22:52;17.30;99.90
5697;DHT22;2873;50.966;7.210;2023-09-19T08:25:20;17.40;99.90
5697;DHT22;2873;50.966;7.210;2023-09-19T08:27:47;17.40;99.90
5697;DHT22;2873;50.966;7.210;2023-09-19T08:30:24;17.50;99.90
5697;DHT22;2873;50.966;7.210;2023-09-19T08:33:02;17.60;99.90
5697;DHT22;2873;50.966;7.210;2023-09-19T08:35:30;17.70;99.90
5697;DHT22;2873;50.966;7.210;2023-09-19T08:37:55;17.70;99.90
5697;DHT22;2873;50.966;7.210;2023-09-19T08:40:22;17.70;99.90
5697;DHT22;2873;50.966;7.210;2023-09-19T08:45:15;17.80;99.90
5697;DHT22;2873;50.966;7.210;2023-09-19T08:47:46;17.70;99.90
5697;DHT22;2873;50.966;7.210;2023-09-19T08:50:19;17.80;99.90
5697;DHT22;2873;50.966;7.210;2023-09-19T08:52:51;17.80;99.90
5697;DHT22;2873;50.966;7.210;2023-09-19T08:55:20;17.90;99.90
5697;DHT22;2873;50.966;7.210;2023-09-19T08:57:49;18.00;99.90
5697;DHT22;2873;50.966;7.210;2023-09-19T09:00:17;18.10;99.90
5697;DHT22;2873;50.966;7.210;2023-09-19T09:02:43;18.00;99.90
5697;DHT22;2873;50.966;7.210;2023-09-19T09:05:10;18.10;99.90
5697;DHT22;2873;50.966;7.210;2023-09-19T09:07:40;18.10;99.90
5697;DHT22;2873;50.966;7.210;2023-09-19T09:10:07;18.00;99.90
5697;DHT22;2873;50.966;7.210;2023-09-19T09:12:33;18.20;99.90
5697;DHT22;2873;50.966;7.210;2023-09-19T09:15:02;18.20;99.90
5697;DHT22;2873;50.966;7.210;2023-09-19T09:17:29;18.30;99.90
5697;DHT22;2873;50.966;7.210;2023-09-19T09:19:55;18.20;99.90
5697;DHT22;2873;50.966;7.210;2023-09-19T09:22:21;18.30;99.90
5697;DHT22;2873;50.966;7.210;2023-09-19T09:24:59;18.40;99.90
5697;DHT22;2873;50.966;7.210;2023-09-19T09:27:29;18.50;99.90
5697;DHT22;2873;50.966;7.210;2023-09-19T09:29:54;18.60;99.90
5697;DHT22;2873;50.966;7.210;2023-09-19T09:32:28;18.70;99.90
5697;DHT22;2873;50.966;7.210;2023-09-19T09:34:56;18.60;99.90
5697;DHT22;2873;50.966;7.210;2023-09-19T09:37:22;18.80;99.90
5697;DHT22;2873;50.966;7.210;2023-09-19T09:39:52;18.90;99.90
5697;DHT22;2873;50.966;7.210;2023-09-19T09:42:30;18.90;99.90
5697;DHT22;2873;50.966;7.210;2023-09-19T09:45:18;19.00;99.90
5697;DHT22;2873;50.966;7.210;2023-09-19T09:48:00;19.00;99.90
5697;DHT22;2873;50.966;7.210;2023-09-19T09:50:30;19.20;99.90
5697;DHT22;2873;50.966;7.210;2023-09-19T09:53:29;19.10;99.90
5697;DHT22;2873;50.966;7.210;2023-09-19T09:56:08;19.20;99.90
5697;DHT22;2873;50.966;7.210;2023-09-19T10:01:13;19.60;99.90
5697;DHT22;2873;50.966;7.210;2023-09-19T10:03:42;19.70;99.90
5697;DHT22;2873;50.966;7.210;2023-09-19T10:06:15;19.90;99.90
5697;DHT22;2873;50.966;7.210;2023-09-19T10:09:07;20.00;99.90
5697;DHT22;2873;50.966;7.210;2023-09-19T10:11:44;20.00;99.90
5697;DHT22;2873;50.966;7.210;2023-09-19T10:14:12;20.20;99.90
5697;DHT22;2873;50.966;7.210;2023-09-19T10:16:46;20.00;99.90
5697;DHT22;2873;50.966;7.210;2023-09-19T10:19:28;19.90;99.90
5697;DHT22;2873;50.966;7.210;2023-09-19T10:21:55;19.80;99.90
5697;DHT22;2873;50.966;7.210;2023-09-19T10:24:22;19.90;99.90
5697;DHT22;2873;50.966;7.210;2023-09-19T10:26:50;19.80;99.90
5697;DHT22;2873;50.966;7.210;2023-09-19T10:29:17;20.10;99.90
5697;DHT22;2873;50.966;7.210;2023-09-19T10:31:44;20.30;99.90
5697;DHT22;2873;50.966;7.210;2023-09-19T10:34:14;20.40;99.90
5697;DHT22;2873;50.966;7.210;2023-09-19T10:36:44;20.60;99.90
5697;DHT22;2873;50.966;7.210;2023-09-19T10:39:11;20.90;99.90
5697;DHT22;2873;50.966;7.210;2023-09-19T10:41:39;21.10;99.90
5697;DHT22;2873;50.966;7.210;2023-09-19T10:44:05;21.10;99.90
5697;DHT22;2873;50.966;7.210;2023-09-19T10:46:32;21.10;99.90
5697;DHT22;2873;50.966;7.210;2023-09-19T10:49:01;21.10;99.90
5697;DHT22;2873;50.966;7.210;2023-09-19T10:51:31;21.00;99.90
5697;DHT22;2873;50.966;7.210;2023-09-19T10:54:19;20.90;99.90
5697;DHT22;2873;50.966;7.210;2023-09-19T10:56:49;21.10;99.90
5697;DHT22;2873;50.966;7.210;2023-09-19T10:59:20;21.10;99.90
5697;DHT22;2873;50.966;7.210;2023-09-19T11:01:54;20.90;99.90
5697;DHT22;2873;50.966;7.210;2023-09-19T11:04:34;21.00;99.90
5697;DHT22;2873;50.966;7.210;2023-09-19T11:07:11;21.00;99.90
5697;DHT22;2873;50.966;7.210;2023-09-19T11:09:51;21.10;99.90
5697;DHT22;2873;50.966;7.210;2023-09-19T11:14:58;21.30;99.90
5697;DHT22;2873;50.966;7.210;2023-09-19T11:30:48;22.10;99.90
5697;DHT22;2873;50.966;7.210;2023-09-19T11:33:32;21.90;99.90
5697;DHT22;2873;50.966;7.210;2023-09-19T11:36:14;21.70;99.90
5697;DHT22;2873;50.966;7.210;2023-09-19T11:46:27;22.00;99.90
5697;DHT22;2873;50.966;7.210;2023-09-19T11:48:54;21.80;99.90
5697;DHT22;2873;50.966;7.210;2023-09-19T11:51:20;21.70;99.90
5697;DHT22;2873;50.966;7.210;2023-09-19T11:53:58;21.60;99.90
5697;DHT22;2873;50.966;7.210;2023-09-19T11:56:39;21.60;99.90
5697;DHT22;2873;50.966;7.210;2023-09-19T11:59:06;22.40;99.90
5697;DHT22;2873;50.966;7.210;2023-09-19T12:01:33;22.50;99.90
5697;DHT22;2873;50.966;7.210;2023-09-19T12:04:01;23.20;99.90
5697;DHT22;2873;50.966;7.210;2023-09-19T12:06:28;23.00;99.90
5697;DHT22;2873;50.966;7.210;2023-09-19T12:09:01;22.80;99.90
5697;DHT22;2873;50.966;7.210;2023-09-19T12:11:32;22.50;99.90
5697;DHT22;2873;50.966;7.210;2023-09-19T12:13:59;22.30;99.90
5697;DHT22;2873;50.966;7.210;2023-09-19T12:16:26;22.10;99.90
5697;DHT22;2873;50.966;7.210;2023-09-19T12:18:56;22.80;99.90
5697;DHT22;2873;50.966;7.210;2023-09-19T12:26:29;25.90;99.90
5697;DHT22;2873;50.966;7.210;2023-09-19T12:28:59;26.40;99.90
5697;DHT22;2873;50.966;7.210;2023-09-19T12:31:27;27.50;99.90
5697;DHT22;2873;50.966;7.210;2023-09-19T12:33:54;28.60;99.90
5697;DHT22;2873;50.966;7.210;2023-09-19T12:36:23;29.10;99.90
5697;DHT22;2873;50.966;7.210;2023-09-19T12:38:58;29.90;99.90
5697;DHT22;2873;50.966;7.210;2023-09-19T12:41:25;30.50;98.90
5697;DHT22;2873;50.966;7.210;2023-09-19T12:43:52;31.10;97.10
5697;DHT22;2873;50.966;7.210;2023-09-19T12:46:22;31.90;95.30
5697;DHT22;2873;50.966;7.210;2023-09-19T12:51:43;32.50;93.30
5697;DHT22;2873;50.966;7.210;2023-09-19T12:54:09;33.20;91.80
5697;DHT22;2873;50.966;7.210;2023-09-19T12:56:44;33.40;91.10
5697;DHT22;2873;50.966;7.210;2023-09-19T12:59:14;34.00;90.30
5697;DHT22;2873;50.966;7.210;2023-09-19T13:01:41;33.30;89.90
5697;DHT22;2873;50.966;7.210;2023-09-19T13:04:19;33.50;88.50
5697;DHT22;2873;50.966;7.210;2023-09-19T13:06:49;34.40;87.40
5697;DHT22;2873;50.966;7.210;2023-09-19T13:09:16;33.20;87.30
5697;DHT22;2873;50.966;7.210;2023-09-19T13:11:43;33.80;86.10
5697;DHT22;2873;50.966;7.210;2023-09-19T13:14:16;32.70;84.80
5697;DHT22;2873;50.966;7.210;2023-09-19T13:17:04;32.90;85.40
5697;DHT22;2873;50.966;7.210;2023-09-19T13:19:41;32.80;84.80
5697;DHT22;2873;50.966;7.210;2023-09-19T13:22:36;33.50;84.30
5697;DHT22;2873;50.966;7.210;2023-09-19T13:25:04;34.40;83.30
5697;DHT22;2873;50.966;7.210;2023-09-19T13:27:32;33.20;82.20
5697;DHT22;2873;50.966;7.210;2023-09-19T13:29:58;33.50;83.20
5697;DHT22;2873;50.966;7.210;2023-09-19T13:32:24;33.80;83.40
5697;DHT22;2873;50.966;7.210;2023-09-19T13:34:49;33.00;83.40
5697;DHT22;2873;50.966;7.210;2023-09-19T13:37:16;33.00;82.30
5697;DHT22;2873;50.966;7.210;2023-09-19T13:39:43;32.70;82.00
5697;DHT22;2873;50.966;7.210;2023-09-19T13:42:13;32.60;84.80
5697;DHT22;2873;50.966;7.210;2023-09-19T13:44:38;31.80;83.90
5697;DHT22;2873;50.966;7.210;2023-09-19T13:47:06;31.20;84.70
5697;DHT22;2873;50.966;7.210;2023-09-19T13:49:35;30.20;86.00
5697;DHT22;2873;50.966;7.210;2023-09-19T13:52:01;29.60;87.50
5697;DHT22;2873;50.966;7.210;2023-09-19T13:54:30;29.00;88.80
5697;DHT22;2873;50.966;7.210;2023-09-19T13:56:56;28.40;89.80
5697;DHT22;2873;50.966;7.210;2023-09-19T13:59:22;28.50;90.20
5697;DHT22;2873;50.966;7.210;2023-09-19T14:01:49;27.60;90.10
5697;DHT22;2873;50.966;7.210;2023-09-19T14:04:15;27.50;90.70
5697;DHT22;2873;50.966;7.210;2023-09-19T14:06:42;27.20;91.10
5697;DHT22;2873;50.966;7.210;2023-09-19T14:09:08;27.50;91.50
5697;DHT22;2873;50.966;7.210;2023-09-19T14:11:34;26.70;91.90
5697;DHT22;2873;50.966;7.210;2023-09-19T14:14:00;26.40;92.30
5697;DHT22;2873;50.966;7.210;2023-09-19T14:16:26;26.30;92.40
5697;DHT22;2873;50.966;7.210;2023-09-19T14:18:55;28.00;91.80
5697;DHT22;2873;50.966;7.210;2023-09-19T14:21:21;29.00;90.60
5697;DHT22;2873;50.966;7.210;2023-09-19T14:23:46;27.30;90.70
5697;DHT22;2873;50.966;7.210;2023-09-19T14:26:12;26.50;91.90
5697;DHT22;2873;50.966;7.210;2023-09-19T14:28:37;25.80;92.80
5697;DHT22;2873;50.966;7.210;2023-09-19T14:31:08;25.40;93.40
5697;DHT22;2873;50.966;7.210;2023-09-19T14:33:34;25.10;93.80
5697;DHT22;2873;50.966;7.210;2023-09-19T14:36:08;24.70;94.10
5697;DHT22;2873;50.966;7.210;2023-09-19T14:38:36;24.50;94.20
5697;DHT22;2873;50.966;7.210;2023-09-19T14:41:03;24.20;94.60
5697;DHT22;2873;50.966;7.210;2023-09-19T14:43:30;23.90;94.90
5697;DHT22;2873;50.966;7.210;2023-09-19T14:46:05;23.60;95.00
5697;DHT22;2873;50.966;7.210;2023-09-19T14:48:33;23.50;95.50
5697;DHT22;2873;50.966;7.210;2023-09-19T14:51:06;23.30;95.60
5697;DHT22;2873;50.966;7.210;2023-09-19T14:53:35;23.20;96.00
5697;DHT22;2873;50.966;7.210;2023-09-19T14:56:01;23.00;96.00
5697;DHT22;2873;50.966;7.210;2023-09-19T14:58:29;22.80;96.50
5697;DHT22;2873;50.966;7.210;2023-09-19T15:01:05;22.50;96.40
5697;DHT22;2873;50.966;7.210;2023-09-19T15:03:32;22.60;96.90
5697;DHT22;2873;50.966;7.210;2023-09-19T15:06:02;22.50;96.70
5697;DHT22;2873;50.966;7.210;2023-09-19T15:08:30;22.50;97.00
5697;DHT22;2873;50.966;7.210;2023-09-19T15:10:56;22.50;97.00
5697;DHT22;2873;50.966;7.210;2023-09-19T15:13:24;22.40;97.10
5697;DHT22;2873;50.966;7.210;2023-09-19T15:16:03;22.40;97.20
5697;DHT22;2873;50.966;7.210;2023-09-19T15:18:30;22.30;97.50
5697;DHT22;2873;50.966;7.210;2023-09-19T15:20:56;22.50;97.60
5697;DHT22;2873;50.966;7.210;2023-09-19T15:23:22;22.30;97.90
5697;DHT22;2873;50.966;7.210;2023-09-19T15:25:49;22.30;98.40
5697;DHT22;2873;50.966;7.210;2023-09-19T15:28:14;22.30;98.70
5697;DHT22;2873;50.966;7.210;2023-09-19T15:30:40;22.30;98.30
5697;DHT22;2873;50.966;7.210;2023-09-19T15:33:05;22.20;98.40
5697;DHT22;2873;50.966;7.210;2023-09-19T15:35:31;22.20;98.10
5697;DHT22;2873;50.966;7.210;2023-09-19T15:37:57;22.00;98.10
5697;DHT22;2873;50.966;7.210;2023-09-19T15:40:24;21.90;98.30
5697;DHT22;2873;50.966;7.210;2023-09-19T15:42:50;21.70;98.20
5697;DHT22;2873;50.966;7.210;2023-09-19T15:45:16;21.60;98.10
5697;DHT22;2873;50.966;7.210;2023-09-19T15:47:44;21.60;98.10
5697;DHT22;2873;50.966;7.210;2023-09-19T15:50:10;21.60;98.60
5697;DHT22;2873;50.966;7.210;2023-09-19T15:52:38;21.50;98.80
5697;DHT22;2873;50.966;7.210;2023-09-19T15:55:05;21.50;99.00
5697;DHT22;2873;50.966;7.210;2023-09-19T15:57:37;21.50;99.10
5697;DHT22;2873;50.966;7.210;2023-09-19T16:00:04;21.50;98.90
5697;DHT22;2873;50.966;7.210;2023-09-19T16:02:35;21.30;99.10
5697;DHT22;2873;50.966;7.210;2023-09-19T16:05:01;21.30;99.30
5697;DHT22;2873;50.966;7.210;2023-09-19T16:07:29;21.30;99.70
5697;DHT22;2873;50.966;7.210;2023-09-19T16:09:55;21.20;99.90
5697;DHT22;2873;50.966;7.210;2023-09-19T16:12:20;21.30;99.90
5697;DHT22;2873;50.966;7.210;2023-09-19T16:14:46;21.30;99.90
5697;DHT22;2873;50.966;7.210;2023-09-19T16:17:11;21.40;99.90
5697;DHT22;2873;50.966;7.210;2023-09-19T16:19:37;21.30;99.90
5697;DHT22;2873;50.966;7.210;2023-09-19T16:22:03;21.30;99.90
5697;DHT22;2873;50.966;7.210;2023-09-19T16:24:28;21.30;99.90
5697;DHT22;2873;50.966;7.210;2023-09-19T16:26:54;21.20;99.90
5697;DHT22;2873;50.966;7.210;2023-09-19T16:29:19;21.30;99.90
5697;DHT22;2873;50.966;7.210;2023-09-19T16:31:49;21.30;99.90
5697;DHT22;2873;50.966;7.210;2023-09-19T16:34:15;21.20;99.90
5697;DHT22;2873;50.966;7.210;2023-09-19T16:36:41;21.10;99.90
5697;DHT22;2873;50.966;7.210;2023-09-19T16:39:07;21.10;99.90
5697;DHT22;2873;50.966;7.210;2023-09-19T16:41:33;21.00;99.90
5697;DHT22;2873;50.966;7.210;2023-09-19T16:44:00;21.10;99.90
5697;DHT22;2873;50.966;7.210;2023-09-19T16:46:26;21.10;99.90
5697;DHT22;2873;50.966;7.210;2023-09-19T16:48:52;21.00;99.90
5697;DHT22;2873;50.966;7.210;2023-09-19T16:51:18;21.00;99.90
5697;DHT22;2873;50.966;7.210;2023-09-19T16:53:44;21.00;99.90
5697;DHT22;2873;50.966;7.210;2023-09-19T16:56:15;20.90;99.90
5697;DHT22;2873;50.966;7.210;2023-09-19T16:58:44;21.00;99.90
5697;DHT22;2873;50.966;7.210;2023-09-19T17:01:11;21.00;99.90